Hudson Mills, Michigan
Current Conditions -  °F | °C
As of 12:53 AM on Sunday 21 Dec 2014 (Local Time) from KARB Reporting Station
Haze Haze  
Wind Chill: -6°   Ceiling: 2500
Heat Index: -6°   Visibility: 6mi
Dew Point: -7°   Wind: 0mph
Humidity: 92%   Direction: NA
Pressure: 30.27"   Gusts: NA
Location:  42.3528°N, 83.8974°W
Report Text: KARB 210553Z AUTO 00000KT 6SM BR BKN025 M06/M07 A3027 RMK AO2 SLP262 T10611072 11011 21061 56002
Loading
Personal Weather Stations






























Interactive Weather Map New forecast layout! Learn more

10-Day Weather Forecast

Advertisements
Track Severe Weather on mobile